createdAt,value
2023-10-23T00:01:37.043Z,100277.47
2023-10-23T00:04:40.138Z,100272.19
2023-10-23T00:07:43.132Z,100282.66
2023-10-23T00:10:46.081Z,100278.28
2023-10-23T00:13:49.110Z,100279.97
2023-10-23T00:16:52.407Z,100279.97
2023-10-23T00:19:54.978Z,100280.84
2023-10-23T00:22:57.616Z,100280.84
2023-10-23T00:26:00.248Z,100276.44
2023-10-23T00:29:04.453Z,100278.94
2023-10-23T00:32:07.113Z,100283.31
2023-10-23T00:35:09.913Z,100284.13
2023-10-23T00:38:13.135Z,100277.13
2023-10-23T00:41:15.786Z,100275.34
2023-10-23T00:44:18.464Z,100278.88
2023-10-23T00:47:22.702Z,100275.41
2023-10-23T00:50:25.827Z,100281.50
2023-10-23T00:53:30.158Z,100278.00
2023-10-23T00:56:33.705Z,100284.97
2023-10-23T00:59:36.370Z,100284.97
2023-10-23T01:02:39.108Z,100287.59
2023-10-23T01:05:42.346Z,100289.25
2023-10-23T01:08:46.116Z,100285.72
2023-10-23T01:11:48.756Z,100280.47
2023-10-23T01:14:51.364Z,100272.53
2023-10-23T01:17:54.070Z,100269.88
2023-10-23T01:20:56.710Z,100278.56
2023-10-23T01:24:02.423Z,100271.53
2023-10-23T01:27:05.583Z,100277.59
2023-10-23T01:30:09.707Z,100289.81
2023-10-23T01:33:14.017Z,100290.59
2023-10-23T01:36:16.777Z,100291.63
2023-10-23T01:39:19.432Z,100291.47
2023-10-23T01:42:22.179Z,100300.09
2023-10-23T01:45:24.824Z,100296.56
2023-10-23T01:48:28.036Z,100301.78
2023-10-23T01:51:31.361Z,100300.88
2023-10-23T01:54:34.085Z,100293.78
2023-10-23T01:57:37.669Z,100290.19
2023-10-23T02:00:40.568Z,100290.16
2023-10-23T02:03:43.743Z,100286.59
2023-10-23T02:06:46.689Z,100284.81
2023-10-23T02:09:49.888Z,100290.06
2023-10-23T02:12:52.385Z,100283.88
2023-10-23T02:15:55.416Z,100282.91
2023-10-23T02:18:57.836Z,100282.84
2023-10-23T02:22:00.875Z,100283.78
2023-10-23T02:25:03.495Z,100289.13
2023-10-23T02:28:06.421Z,100287.28
2023-10-23T02:31:08.822Z,100278.41
2023-10-23T02:34:12.149Z,100283.63
2023-10-23T02:37:14.612Z,100283.56
2023-10-23T02:40:17.562Z,100283.56
2023-10-23T02:43:20.248Z,100289.59
2023-10-23T02:46:23.564Z,100290.63
2023-10-23T02:49:26.151Z,100295.75
2023-10-23T02:52:29.231Z,100293.09
2023-10-23T02:55:31.609Z,100302.72
2023-10-23T02:58:36.901Z,100290.63
2023-10-23T03:01:39.529Z,100292.41
2023-10-23T03:04:42.595Z,100291.53
2023-10-23T03:07:45.121Z,100295.78
2023-10-23T03:10:48.215Z,100298.44
2023-10-23T03:13:51.613Z,100302.84
2023-10-23T03:16:54.627Z,100304.69
2023-10-23T03:19:57.216Z,100303.72
2023-10-23T03:23:00.156Z,100307.97
2023-10-23T03:26:03.010Z,100307.97
2023-10-23T03:29:06.446Z,100308.88
2023-10-23T03:32:09.910Z,100306.13
2023-10-23T03:35:14.170Z,100309.69
2023-10-23T03:38:16.997Z,100323.66
2023-10-23T03:41:19.831Z,100322.75
2023-10-23T03:44:22.306Z,100320.94
2023-10-23T03:47:25.263Z,100318.28
2023-10-23T03:50:27.653Z,100322.63
2023-10-23T03:53:30.934Z,100321.87
2023-10-23T03:56:34.116Z,100319.44
2023-10-23T03:59:37.147Z,100323.69
2023-10-23T04:02:39.585Z,100313.16
2023-10-23T04:05:42.690Z,100311.22
2023-10-23T04:08:45.188Z,100323.56
2023-10-23T04:11:48.119Z,100326.19
2023-10-23T04:14:50.465Z,100340.25
2023-10-23T04:17:53.379Z,100342.56
2023-10-23T04:21:03.572Z,100349.37
2023-10-23T04:24:12.585Z,100345.94
2023-10-23T04:27:14.984Z,100351.84
2023-10-23T04:30:18.877Z,100362.31
2023-10-23T04:33:23.116Z,100357.94
2023-10-23T04:36:26.338Z,100352.03
2023-10-23T04:39:28.948Z,100357.88
2023-10-23T04:42:31.890Z,100363.84
2023-10-23T04:45:36.318Z,100353.31
2023-10-23T04:48:39.380Z,100366.41
2023-10-23T04:51:41.902Z,100366.31
2023-10-23T04:54:44.980Z,100366.16
2023-10-23T04:57:47.438Z,100365.34
2023-10-23T05:00:51.327Z,100371.47
2023-10-23T05:03:53.808Z,100364.47
2023-10-23T05:06:57.060Z,100362.03
2023-10-23T05:09:59.473Z,100364.88
2023-10-23T05:13:04.383Z,100366.37
2023-10-23T05:16:08.777Z,100370.97
2023-10-23T05:19:12.124Z,100365.59
2023-10-23T05:22:14.623Z,100376.19
2023-10-23T05:25:17.711Z,100371.16
2023-10-23T05:28:20.036Z,100364.44
2023-10-23T05:31:23.053Z,100373.38
2023-10-23T05:34:25.770Z,100368.81
2023-10-23T05:37:29.389Z,100368.28
2023-10-23T05:40:31.799Z,100371.84
2023-10-23T05:43:34.766Z,100375.47
2023-10-23T05:46:37.303Z,100384.12
2023-10-23T05:49:40.422Z,100397.22
2023-10-23T05:52:42.794Z,100397.97
2023-10-23T05:55:45.753Z,100391.12
2023-10-23T05:58:48.567Z,100400.03
2023-10-23T06:01:51.510Z,100404.53
2023-10-23T06:04:57.310Z,100404.81
2023-10-23T06:08:00.067Z,100404.81
2023-10-23T06:11:03.164Z,100401.34
2023-10-23T06:14:05.954Z,100413.75
2023-10-23T06:17:08.985Z,100421.06
2023-10-23T06:20:11.854Z,100417.66
2023-10-23T06:23:14.769Z,100431.84
2023-10-23T06:26:17.392Z,100429.97
2023-10-23T06:29:20.127Z,100433.84
2023-10-23T06:32:22.742Z,100433.16
2023-10-23T06:35:25.584Z,100435.03
2023-10-23T06:38:28.497Z,100437.75
2023-10-23T06:41:31.681Z,100432.69
2023-10-23T06:44:34.317Z,100439.63
2023-10-23T06:47:40.138Z,100434.34
2023-10-23T06:50:47.609Z,100436.19
2023-10-23T06:53:50.404Z,100436.41
2023-10-23T06:56:53.163Z,100429.97
2023-10-23T06:59:56.306Z,100425.16
2023-10-23T07:02:59.016Z,100422.00
2023-10-23T07:06:06.354Z,100429.34
2023-10-23T07:09:09.005Z,100427.56
2023-10-23T07:12:11.742Z,100438.28
2023-10-23T07:15:14.818Z,100430.97
2023-10-23T07:18:18.768Z,100432.28
2023-10-23T07:21:24.785Z,100430.00
2023-10-23T07:24:27.672Z,100427.09
2023-10-23T07:27:31.451Z,100429.44
2023-10-23T07:30:36.008Z,100425.66
2023-10-23T07:33:38.752Z,100416.16
2023-10-23T07:36:41.462Z,100425.75
2023-10-23T07:39:48.577Z,100429.22
2023-10-23T07:42:53.633Z,100432.75
2023-10-23T07:46:08.106Z,100434.03
2023-10-23T07:49:11.116Z,100432.56
2023-10-23T07:52:13.826Z,100431.44
2023-10-23T07:55:16.513Z,100429.97
2023-10-23T07:58:19.884Z,100433.44
2023-10-23T08:01:23.532Z,100439.72
2023-10-23T08:04:26.578Z,100447.19
2023-10-23T08:07:29.540Z,100433.94
2023-10-23T08:10:32.553Z,100436.53
2023-10-23T08:13:35.020Z,100425.81
2023-10-23T08:16:38.121Z,100424.44
2023-10-23T08:19:41.204Z,100418.03
2023-10-23T08:22:44.550Z,100412.06
2023-10-23T08:25:47.879Z,100403.72
2023-10-23T08:31:56.461Z,100412.03
2023-10-23T08:34:59.583Z,100397.50
2023-10-23T08:38:02.111Z,100393.41
2023-10-23T08:41:05.216Z,100395.63
2023-10-23T08:44:07.607Z,100389.44
2023-10-23T08:47:10.619Z,100381.38
2023-10-23T08:50:13.069Z,100373.09
2023-10-23T08:53:16.878Z,100365.16
2023-10-23T08:56:20.319Z,100352.44
2023-10-23T08:59:23.407Z,100362.47
2023-10-23T09:02:26.082Z,100367.69
2023-10-23T09:05:29.138Z,100366.97
2023-10-23T09:08:34.652Z,100368.63
2023-10-23T09:11:42.887Z,100362.47
2023-10-23T09:14:45.409Z,100372.16
2023-10-23T09:17:50.893Z,100365.50
2023-10-23T09:20:53.349Z,100370.84
2023-10-23T09:23:57.277Z,100369.78
2023-10-23T09:26:59.875Z,100369.13
2023-10-23T09:30:04.390Z,100373.22
2023-10-23T09:33:07.319Z,100367.59
2023-10-23T09:36:10.426Z,100356.84
2023-10-23T09:39:12.833Z,100349.88
2023-10-23T09:42:15.707Z,100356.41
2023-10-23T09:45:18.175Z,100350.09
2023-10-23T09:48:21.497Z,100348.75
2023-10-23T09:51:27.082Z,100352.53
2023-10-23T09:54:31.411Z,100343.31
2023-10-23T09:57:38.160Z,100359.13
2023-10-23T10:00:43.218Z,100344.63
2023-10-23T10:03:46.989Z,100349.09
2023-10-23T10:06:55.459Z,100338.69
2023-10-23T10:09:59.750Z,100341.59
2023-10-23T10:13:03.879Z,100343.22
2023-10-23T10:16:07.122Z,100346.53
2023-10-23T10:19:10.051Z,100331.97
2023-10-23T10:22:16.179Z,100335.63
2023-10-23T10:25:19.730Z,100327.38
2023-10-23T10:28:26.993Z,100331.47
2023-10-23T10:31:30.051Z,100326.44
2023-10-23T10:34:37.611Z,100327.69
2023-10-23T10:37:41.243Z,100328.59
2023-10-23T10:41:02.651Z,100322.09
2023-10-23T10:44:10.703Z,100320.69
2023-10-23T10:47:14.060Z,100315.31
2023-10-23T10:50:34.124Z,100313.22
2023-10-23T10:53:41.533Z,100308.53
2023-10-23T10:56:45.266Z,100308.84
2023-10-23T10:59:48.263Z,100300.44
2023-10-23T11:02:51.951Z,100301.16
2023-10-23T11:05:55.853Z,100302.63
2023-10-23T11:09:00.159Z,100314.63
2023-10-23T11:12:04.016Z,100314.16
2023-10-23T11:15:08.147Z,100307.16
2023-10-23T11:18:10.972Z,100313.78
2023-10-23T11:21:13.554Z,100303.31
2023-10-23T11:24:16.170Z,100305.06
2023-10-23T11:27:19.181Z,100306.41
2023-10-23T11:30:25.408Z,100301.37
2023-10-23T11:33:28.195Z,100301.47
2023-10-23T11:36:34.119Z,100293.91
2023-10-23T11:39:38.459Z,100280.50
2023-10-23T11:42:48.683Z,100278.66
2023-10-23T11:45:54.071Z,100276.56
2023-10-23T11:48:56.814Z,100274.09
2023-10-23T11:52:00.277Z,100267.09
2023-10-23T11:55:05.277Z,100258.50
2023-10-23T11:58:08.242Z,100256.75
2023-10-23T12:01:10.985Z,100239.16
2023-10-23T12:04:14.502Z,100244.81
2023-10-23T12:07:16.985Z,100225.41
2023-10-23T12:10:20.717Z,100221.09
2023-10-23T12:13:23.981Z,100214.91
2023-10-23T12:16:27.734Z,100207.06
2023-10-23T12:19:30.256Z,100206.06
2023-10-23T12:22:33.481Z,100214.63
2023-10-23T12:25:35.893Z,100210.16
2023-10-23T12:28:39.229Z,100227.41
2023-10-23T12:32:01.554Z,100215.91
2023-10-23T12:35:05.650Z,100211.81
2023-10-23T12:38:08.162Z,100212.66
2023-10-23T12:41:11.157Z,100215.12
2023-10-23T12:44:13.508Z,100210.81
2023-10-23T12:47:16.765Z,100217.31
2023-10-23T12:50:19.181Z,100216.63
2023-10-23T12:53:22.209Z,100216.59
2023-10-23T12:56:24.635Z,100206.66
2023-10-23T12:59:27.542Z,100211.31
2023-10-23T13:02:30.059Z,100209.69
2023-10-23T13:05:33.415Z,100216.87
2023-10-23T13:08:35.746Z,100208.16
2023-10-23T13:11:38.948Z,100205.97
2023-10-23T13:14:41.379Z,100191.66
2023-10-23T13:17:44.500Z,100181.88
2023-10-23T13:21:30.353Z,100185.28
2023-10-23T13:24:12.702Z,100186.78
2023-10-23T13:27:16.935Z,100185.91
2023-10-23T13:30:28.793Z,100180.38
2023-10-23T13:33:33.175Z,100181.75
2023-10-23T13:36:36.082Z,100184.41
2023-10-23T13:39:38.525Z,100182.31
2023-10-23T13:42:51.761Z,100188.91
2023-10-23T13:45:54.243Z,100185.84
2023-10-23T13:48:57.241Z,100178.91
2023-10-23T13:52:00.112Z,100186.97
2023-10-23T13:55:06.356Z,100192.50
2023-10-23T13:58:11.944Z,100184.41
2023-10-23T14:01:15.551Z,100190.94
2023-10-23T14:04:19.117Z,100176.06
2023-10-23T14:07:21.917Z,100179.72
2023-10-23T14:10:27.813Z,100178.06
2023-10-23T14:13:30.603Z,100174.41
2023-10-23T14:16:33.502Z,100181.69
2023-10-23T14:19:46.416Z,100170.50
2023-10-23T14:22:50.573Z,100173.47
2023-10-23T14:25:54.365Z,100176.25
2023-10-23T14:28:57.261Z,100170.16
2023-10-23T14:31:59.966Z,100169.34
2023-10-23T14:35:02.709Z,100162.34
2023-10-23T14:38:05.801Z,100160.62
2023-10-23T14:41:08.533Z,100160.66
2023-10-23T14:44:11.408Z,100156.25
2023-10-23T14:47:14.256Z,100158.06
2023-10-23T14:50:17.191Z,100153.69
2023-10-23T14:53:20.044Z,100147.47
2023-10-23T14:56:23.594Z,100151.06
2023-10-23T14:59:26.424Z,100165.25
2023-10-23T15:02:29.470Z,100158.19
2023-10-23T15:05:32.365Z,100155.63
2023-10-23T15:08:35.059Z,100155.63
2023-10-23T15:11:37.772Z,100156.59
2023-10-23T15:14:40.497Z,100161.91
2023-10-23T15:17:43.504Z,100164.56
2023-10-23T15:20:46.251Z,100155.75
2023-10-23T15:23:51.390Z,100149.63
2023-10-23T15:26:54.054Z,100149.63
2023-10-23T15:29:56.922Z,100153.19
2023-10-23T15:32:59.646Z,100154.97
2023-10-23T15:36:03.032Z,100154.97
2023-10-23T15:39:07.208Z,100155.00
2023-10-23T15:42:09.959Z,100155.00
2023-10-23T15:45:15.637Z,100150.59
2023-10-23T15:48:20.477Z,100147.09
2023-10-23T15:51:23.148Z,100154.16
2023-10-23T15:54:25.932Z,100147.09
2023-10-23T15:57:28.804Z,100148.87
2023-10-23T16:00:31.724Z,100145.34
2023-10-23T16:03:35.480Z,100145.37
2023-10-23T16:06:38.216Z,100149.78
2023-10-23T16:09:41.823Z,100151.56
2023-10-23T16:12:44.364Z,100153.34
2023-10-23T16:15:47.541Z,100155.09
2023-10-23T16:18:50.706Z,100154.25
2023-10-23T16:21:53.807Z,100158.63
2023-10-23T16:24:56.609Z,100163.94
2023-10-23T16:28:00.164Z,100163.94
2023-10-23T16:31:02.641Z,100161.28
2023-10-23T16:34:05.912Z,100170.09
2023-10-23T16:37:08.393Z,100176.28
2023-10-23T16:40:11.990Z,100177.16
2023-10-23T16:43:19.152Z,100167.47
2023-10-23T16:46:22.331Z,100168.34
2023-10-23T16:49:25.223Z,100161.31
2023-10-23T16:52:29.187Z,100161.28
2023-10-23T16:55:31.594Z,100160.44
2023-10-23T16:58:34.737Z,100149.84
2023-10-23T17:01:39.358Z,100157.78
2023-10-23T17:04:42.434Z,100151.56
2023-10-23T17:07:46.203Z,100152.44
2023-10-23T17:10:49.390Z,100145.41
2023-10-23T17:13:53.679Z,100148.91
2023-10-23T17:16:56.672Z,100147.16
2023-10-23T17:19:59.147Z,100144.50
2023-10-23T17:23:04.618Z,100140.97
2023-10-23T17:26:06.967Z,100129.53
2023-10-23T17:29:10.963Z,100133.03
2023-10-23T17:32:14.131Z,100140.97
2023-10-23T17:35:17.130Z,100138.31
2023-10-23T17:38:19.856Z,100139.19
2023-10-23T17:41:23.159Z,100142.69
2023-10-23T17:44:25.691Z,100138.28
2023-10-23T17:47:30.758Z,100143.56
2023-10-23T17:50:34.188Z,100150.56
2023-10-23T17:53:41.966Z,100142.63
2023-10-23T17:56:52.388Z,100132.03
2023-10-23T17:59:55.349Z,100139.06
2023-10-23T18:02:58.160Z,100146.97
2023-10-23T18:06:03.987Z,100147.84
2023-10-23T18:09:06.616Z,100145.13
2023-10-23T18:12:15.820Z,100149.53
2023-10-23T18:15:24.792Z,100158.31
2023-10-23T18:18:27.705Z,100152.16
2023-10-23T18:21:30.063Z,100148.63
2023-10-23T18:24:33.161Z,100153.91
2023-10-23T18:27:35.620Z,100153.91
2023-10-23T18:30:38.584Z,100144.22
2023-10-23T18:33:40.975Z,100148.59
2023-10-23T18:36:45.453Z,100153.88
2023-10-23T18:39:47.868Z,100155.63
2023-10-23T18:42:55.863Z,100150.34
2023-10-23T18:45:58.563Z,100152.97
2023-10-23T18:49:03.159Z,100148.59
2023-10-23T18:52:05.743Z,100145.06
2023-10-23T18:55:08.793Z,100152.09
2023-10-23T18:58:11.222Z,100149.44
2023-10-23T19:01:16.111Z,100145.91
2023-10-23T19:04:18.733Z,100157.34
2023-10-23T19:07:22.552Z,100144.97
2023-10-23T19:10:24.954Z,100148.50
2023-10-23T19:13:28.021Z,100148.47
2023-10-23T19:16:30.485Z,100143.19
2023-10-23T19:19:33.610Z,100142.31
2023-10-23T19:22:37.160Z,100144.94
2023-10-23T19:25:40.341Z,100147.56
2023-10-23T19:28:42.673Z,100143.13
2023-10-23T19:31:46.970Z,100142.25
2023-10-23T19:34:51.992Z,100140.47
2023-10-23T19:37:54.952Z,100136.88
2023-10-23T19:41:01.807Z,100132.50
2023-10-23T19:44:05.075Z,100138.63
2023-10-23T19:47:07.775Z,100128.09
2023-10-23T19:50:11.095Z,100136.81
2023-10-23T19:53:17.030Z,100126.25
2023-10-23T19:56:28.860Z,100120.94
2023-10-23T19:59:32.891Z,100122.69
2023-10-23T20:02:35.953Z,100122.69
2023-10-23T20:05:38.660Z,100114.75
2023-10-23T20:08:41.434Z,100112.97
2023-10-23T20:11:44.092Z,100115.53
2023-10-23T20:14:46.738Z,100108.50
2023-10-23T20:17:52.740Z,100113.72
2023-10-23T20:20:58.438Z,100112.81
2023-10-23T20:24:01.242Z,100107.50
2023-10-23T20:27:04.004Z,100111.87
2023-10-23T20:30:06.869Z,100102.19
2023-10-23T20:33:12.196Z,100111.00
2023-10-23T20:36:14.904Z,100117.09
2023-10-23T20:39:17.735Z,100109.16
2023-10-23T20:42:20.479Z,100108.25
2023-10-23T20:45:23.201Z,100103.84
2023-10-23T20:48:26.577Z,100102.97
2023-10-23T20:51:29.451Z,100108.22
2023-10-23T20:54:32.130Z,100111.75
2023-10-23T20:57:34.790Z,100104.75
2023-10-23T21:00:37.598Z,100110.00
2023-10-23T21:03:40.487Z,100108.22
2023-10-23T21:06:43.146Z,100102.09
2023-10-23T21:09:46.003Z,100104.72
2023-10-23T21:12:48.666Z,100097.69
2023-10-23T21:15:51.437Z,100095.94
2023-10-23T21:18:56.174Z,100091.56
2023-10-23T21:22:00.485Z,100087.13
2023-10-23T21:25:04.704Z,100086.25
2023-10-23T21:28:07.564Z,100086.19
2023-10-23T21:31:12.096Z,100072.13
2023-10-23T21:34:15.703Z,100071.25
2023-10-23T21:37:18.401Z,100073.91
2023-10-23T21:40:21.013Z,100073.00
2023-10-23T21:43:23.730Z,100066.84
2023-10-23T21:46:26.479Z,100063.34
2023-10-23T21:49:29.196Z,100063.34
2023-10-23T21:52:32.114Z,100062.47
2023-10-23T21:55:36.333Z,100068.56
2023-10-23T21:59:06.494Z,100060.63
2023-10-23T22:02:01.968Z,100059.75
2023-10-23T22:05:05.173Z,100052.72
2023-10-23T22:08:07.746Z,100052.69
2023-10-23T22:11:11.238Z,100055.31
2023-10-23T22:14:13.999Z,100049.16
2023-10-23T22:17:17.099Z,100043.03
2023-10-23T22:20:19.696Z,100043.84
2023-10-23T22:23:23.034Z,100040.31
2023-10-23T22:26:25.388Z,100034.13
2023-10-23T22:29:28.338Z,100036.75
2023-10-23T22:32:30.938Z,100032.34
2023-10-23T22:35:34.163Z,100034.09
2023-10-23T22:38:36.531Z,100030.56
2023-10-23T22:41:41.162Z,100028.78
2023-10-23T22:44:43.621Z,100026.16
2023-10-23T22:47:46.577Z,100029.63
2023-10-23T22:50:51.524Z,100023.50
2023-10-23T22:53:54.563Z,100018.19
2023-10-23T22:56:59.542Z,100017.38
2023-10-23T23:00:04.496Z,100033.13
2023-10-23T23:03:07.078Z,100024.25
2023-10-23T23:06:10.912Z,100011.91
2023-10-23T23:09:13.350Z,100005.72
2023-10-23T23:12:16.498Z,100012.75
2023-10-23T23:15:19.292Z,99999.63
2023-10-23T23:18:22.788Z,99999.50
2023-10-23T23:21:26.490Z,99988.94
2023-10-23T23:24:30.906Z,99994.16
2023-10-23T23:27:35.187Z,99986.28
2023-10-23T23:30:39.210Z,99986.28
2023-10-23T23:33:41.572Z,99981.84
2023-10-23T23:36:44.519Z,99972.19
2023-10-23T23:39:47.665Z,99973.94
2023-10-23T23:42:50.291Z,99975.63
2023-10-23T23:45:53.450Z,99973.84
2023-10-23T23:48:56.141Z,99985.25
2023-10-23T23:51:58.753Z,99972.94
2023-10-23T23:55:01.553Z,99969.44
2023-10-23T23:58:04.310Z,99975.50
